CheckWX is a tool to help pilots better visualize weather data.  It is not intended as a substitute for an official pre-flight weather briefing.

18:05:37 UTC

FMNM METAR
Amborovy Airport
Madagascar
Current

1 hour ago

FMNM 241700Z 00000KT 9999 FEW020 28/24 Q1010
Observed
Apr-24 @ 17:00 UTC
Visibility
10,000+ meters
Flight Rules
VFR
Cloud Levels
  • Few at 2,000' AGL
Temperature
28°C / 82°F
Dewpoint
24°C / 75°F
Heat Index
32°C / 89°F
Humidity
79%
Altimeter
29.82" Hg
Pressure
1009.92 hPa
Previous

2 hours ago

FMNM 241600Z 00000KT 9999 FEW020 30/23 Q1009
Observed
Apr-24 @ 16:00 UTC
Visibility
10,000+ meters
Flight Rules
VFR
Cloud Levels
  • Few at 2,000' AGL
Temperature
30°C / 86°F
Dewpoint
23°C / 73°F
Heat Index
34°C / 93°F
Humidity
66%
Altimeter
29.79" Hg
Pressure
1008.92 hPa
Previous

3 hours ago

FMNM 241500Z 12002KT 9999 FEW020 31/23 Q1009
Observed
Apr-24 @ 15:00 UTC
Wind
  • 120° at 2 KTS
Visibility
10,000+ meters
Flight Rules
VFR
Cloud Levels
  • Few at 2,000' AGL
Temperature
31°C / 88°F
Dewpoint
23°C / 73°F
Heat Index
36°C / 96°F
Humidity
62%
Altimeter
29.79" Hg
Pressure
1008.92 hPa